Time;durP1;ratioP1;P1;durP2;ratioP2;P2;SDS_P1;SDS_P2;PMS_P1;PMS_P2;Temp;Humidity;BMP_temperature;BMP_pressure;BME280_temperature;BME280_humidity;BME280_pressure;Samples;Min_cycle;Max_cycle;Signal;HPM_P1;HPM_P2
2021/11/17 02:27:47;;;;;;;20.27;14.40;;;;;;;;;;5059918;28;20458;-58
2021/11/17 02:30:34;;;;;;;19.73;14.00;;;;;;;;;;5060461;28;20474;-58
2021/11/17 02:33:18;;;;;;;19.37;12.53;;;;;;;;;;5059271;28;20427;-60
2021/11/17 02:36:06;;;;;;;21.67;13.20;;;;;;;;;;5059627;28;20519;-59
2021/11/17 02:39:06;;;;;;;18.87;12.10;;;;;;;;;;5059530;28;20459;-59
2021/11/17 02:42:03;;;;;;;18.43;12.73;;;;;;;;;;5058524;28;20471;-59
2021/11/17 02:44:49;;;;;;;19.97;14.83;;;;;;;;;;5058035;28;20449;-60
2021/11/17 02:48:08;;;;;;;20.97;14.83;;;;;;;;;;5059302;28;20473;-60
2021/11/17 02:51:04;;;;;;;19.23;12.40;;;;;;;;;;5050400;28;20473;-60
2021/11/17 02:54:05;;;;;;;26.70;14.77;;;;;;;;;;5058645;28;20490;-60
2021/11/17 02:57:01;;;;;;;17.50;13.10;;;;;;;;;;5058712;28;20464;-60
2021/11/17 02:59:45;;;;;;;19.40;13.67;;;;;;;;;;5059503;28;20518;-59
2021/11/17 03:02:22;;;;;;;15.80;12.90;;;;;;;;;;5059680;28;20469;-59
2021/11/17 03:05:04;;;;;;;17.90;13.07;;;;;;;;;;5059421;28;20456;-59
2021/11/17 03:08:09;;;;;;;15.57;11.73;;;;;;;;;;5059310;28;20522;-59
2021/11/17 03:10:56;;;;;;;18.77;13.20;;;;;;;;;;5017695;28;20478;-60
2021/11/17 03:13:42;;;;;;;18.83;12.50;;;;;;;;;;5056707;28;20461;-58
2021/11/17 03:16:29;;;;;;;18.57;12.20;;;;;;;;;;5058572;28;20462;-59
2021/11/17 03:19:11;;;;;;;18.90;12.73;;;;;;;;;;5058613;28;20459;-59
2021/11/17 03:22:02;;;;;;;18.70;12.67;;;;;;;;;;5057688;28;20449;-59
2021/11/17 03:24:40;;;;;;;15.47;11.20;;;;;;;;;;5058633;28;20453;-59
2021/11/17 03:27:20;;;;;;;16.23;13.63;;;;;;;;;;5058734;28;20797;-60
2021/11/17 03:30:09;;;;;;;15.67;11.90;;;;;;;;;;5058503;28;20454;-60
2021/11/17 03:32:59;;;;;;;17.77;11.83;;;;;;;;;;5058742;28;20718;-59
2021/11/17 03:35:46;;;;;;;19.43;13.20;;;;;;;;;;5058965;28;20546;-60
2021/11/17 03:38:40;;;;;;;12.83;10.07;;;;;;;;;;5057952;28;20449;-59
2021/11/17 03:41:17;;;;;;;11.40;9.50;;;;;;;;;;5058556;28;20930;-59
2021/11/17 03:43:54;;;;;;;13.30;10.53;;;;;;;;;;5058936;28;20459;-58
2021/11/17 03:46:48;;;;;;;11.57;9.80;;;;;;;;;;5058982;28;20452;-59
2021/11/17 03:49:26;;;;;;;11.57;9.37;;;;;;;;;;5058755;28;20451;-58
2021/11/17 03:52:00;;;;;;;12.77;9.57;;;;;;;;;;5058558;28;20455;-59
2021/11/17 03:54:49;;;;;;;11.27;8.53;;;;;;;;;;5058293;28;20479;-58
2021/11/17 03:57:36;;;;;;;13.37;9.07;;;;;;;;;;5058574;28;20468;-59
2021/11/17 04:00:32;;;;;;;13.17;9.50;;;;;;;;;;5058679;28;20783;-59
2021/11/17 04:03:16;;;;;;;11.77;9.43;;;;;;;;;;5057724;28;20548;-59
2021/11/17 04:06:08;;;;;;;11.37;9.37;;;;;;;;;;5059074;28;20452;-59
2021/11/17 04:09:07;;;;;;;13.90;10.30;;;;;;;;;;5056915;28;20802;-58
2021/11/17 04:11:51;;;;;;;12.93;8.77;;;;;;;;;;5056919;28;20939;-59
2021/11/17 04:14:46;;;;;;;11.27;9.60;;;;;;;;;;5058088;28;20473;-60
2021/11/17 04:17:45;;;;;;;10.90;8.93;;;;;;;;;;5057244;28;20470;-59
2021/11/17 04:20:29;;;;;;;11.37;8.73;;;;;;;;;;5057787;28;20584;-60
2021/11/17 04:23:16;;;;;;;13.00;9.70;;;;;;;;;;5058843;28;20523;-60
2021/11/17 04:25:45;;;;;;;11.90;8.37;;;;;;;;;;5058226;28;20475;-60
2021/11/17 04:28:29;;;;;;;12.60;8.67;;;;;;;;;;5058183;28;20469;-59
2021/11/17 04:31:20;;;;;;;9.90;7.10;;;;;;;;;;5057815;28;20855;-59
2021/11/17 04:34:07;;;;;;;9.73;7.30;;;;;;;;;;5058400;28;20539;-60
2021/11/17 04:37:11;;;;;;;8.00;6.67;;;;;;;;;;5057854;28;20485;-58
2021/11/17 04:39:55;;;;;;;10.80;6.60;;;;;;;;;;5057793;28;20466;-60
2021/11/17 04:43:04;;;;;;;10.53;8.20;;;;;;;;;;5058394;28;20465;-59
2021/11/17 04:45:35;;;;;;;9.07;7.10;;;;;;;;;;5058563;28;20445;-59
2021/11/17 04:48:22;;;;;;;7.80;7.00;;;;;;;;;;5058618;28;20534;-59
2021/11/17 04:50:57;;;;;;;8.73;6.70;;;;;;;;;;5058312;28;20787;-59
2021/11/17 04:53:41;;;;;;;7.50;6.33;;;;;;;;;;5057815;28;20434;-60
2021/11/17 04:56:24;;;;;;;9.50;7.57;;;;;;;;;;5058076;28;20464;-59
2021/11/17 04:59:15;;;;;;;8.20;7.20;;;;;;;;;;5058316;28;20452;-58
2021/11/17 05:01:50;;;;;;;8.50;5.93;;;;;;;;;;5057043;28;20507;-59
2021/11/17 05:04:43;;;;;;;13.33;6.97;;;;;;;;;;5058279;28;20456;-60
2021/11/17 05:07:26;;;;;;;7.70;6.13;;;;;;;;;;5059495;28;20450;-59
2021/11/17 05:10:11;;;;;;;7.43;6.30;;;;;;;;;;5035916;28;20809;-59
2021/11/17 05:13:03;;;;;;;9.63;7.47;;;;;;;;;;5045590;28;20572;-59
2021/11/17 05:15:41;;;;;;;10.50;7.77;;;;;;;;;;5054293;28;20475;-60
2021/11/17 05:18:14;;;;;;;8.03;6.67;;;;;;;;;;5053258;28;20784;-59
2021/11/17 05:21:03;;;;;;;8.10;6.40;;;;;;;;;;5049591;28;20471;-60
2021/11/17 05:23:41;;;;;;;8.10;6.77;;;;;;;;;;5047073;28;20470;-60
2021/11/17 05:26:53;;;;;;;8.20;7.40;;;;;;;;;;5038447;28;20478;-60
2021/11/17 05:30:02;;;;;;;7.77;6.80;;;;;;;;;;5042788;28;20811;-59
2021/11/17 05:32:46;;;;;;;9.17;7.40;;;;;;;;;;5033526;28;21011;-59
2021/11/17 05:35:24;;;;;;;8.30;7.37;;;;;;;;;;5059244;28;20809;-59
2021/11/17 05:37:58;;;;;;;9.10;8.10;;;;;;;;;;5049026;28;20464;-60
2021/11/17 05:40:56;;;;;;;11.87;9.20;;;;;;;;;;5053268;28;20964;-59
2021/11/17 05:44:07;;;;;;;9.40;8.13;;;;;;;;;;5039298;28;20469;-60
2021/11/17 05:46:45;;;;;;;11.70;9.20;;;;;;;;;;5052303;28;20453;-60
2021/11/17 05:49:29;;;;;;;11.47;8.17;;;;;;;;;;5052793;28;20467;-58
2021/11/17 05:52:17;;;;;;;12.63;8.20;;;;;;;;;;5047570;28;20475;-59
2021/11/17 05:55:20;;;;;;;11.33;9.10;;;;;;;;;;5046417;28;20475;-60
2021/11/17 05:58:26;;;;;;;12.20;8.57;;;;;;;;;;5047106;28;20444;-60
2021/11/17 06:00:54;;;;;;;8.90;7.33;;;;;;;;;;5048641;28;20454;-59
2021/11/17 06:03:27;;;;;;;10.00;8.43;;;;;;;;;;5053941;28;20454;-60
2021/11/17 06:05:52;;;;;;;9.77;7.90;;;;;;;;;;5053826;28;20443;-59
2021/11/17 06:08:17;;;;;;;10.52;7.70;;;;;;;;;;5046406;28;20469;-60
2021/11/17 06:10:45;;;;;;;15.07;9.20;;;;;;;;;;5043135;28;20238;-60
2021/11/17 06:13:12;;;;;;;10.90;8.40;;;;;;;;;;5045381;28;20295;-60
2021/11/17 06:15:37;;;;;;;9.93;8.67;;;;;;;;;;5050136;28;20477;-60
2021/11/17 06:18:03;;;;;;;11.93;8.10;;;;;;;;;;5042650;28;20476;-59
2021/11/17 06:20:29;;;;;;;9.03;7.50;;;;;;;;;;5050905;28;20632;-60
2021/11/17 06:22:59;;;;;;;12.53;9.83;;;;;;;;;;5053605;28;20475;-58
2021/11/17 06:25:25;;;;;;;13.47;9.83;;;;;;;;;;5048102;28;20800;-59
2021/11/17 06:27:52;;;;;;;10.90;8.40;;;;;;;;;;5046726;28;20425;-59
2021/11/17 06:30:19;;;;;;;11.27;8.40;;;;;;;;;;5052612;28;20234;-58
2021/11/17 06:32:45;;;;;;;13.80;10.37;;;;;;;;;;5052592;28;20472;-59
2021/11/17 06:35:10;;;;;;;14.10;9.17;;;;;;;;;;5048156;28;20474;-59
2021/11/17 06:37:36;;;;;;;12.83;9.50;;;;;;;;;;5046343;28;20231;-60
2021/11/17 06:40:05;;;;;;;15.10;9.70;;;;;;;;;;5052130;28;20327;-60
2021/11/17 06:42:36;;;;;;;12.50;8.90;;;;;;;;;;5051632;28;20231;-59
2021/11/17 06:45:14;;;;;;;11.53;9.43;;;;;;;;;;5047077;28;20538;-60
2021/11/17 06:47:39;;;;;;;12.40;8.33;;;;;;;;;;5045701;28;20490;-60
2021/11/17 06:50:05;;;;;;;13.07;10.00;;;;;;;;;;5049566;28;20475;-59
2021/11/17 06:52:30;;;;;;;13.57;9.90;;;;;;;;;;5053204;28;20228;-59
2021/11/17 06:54:55;;;;;;;10.87;8.27;;;;;;;;;;5050284;28;20962;-59
2021/11/17 06:57:21;;;;;;;14.40;10.10;;;;;;;;;;5045239;28;20288;-59
2021/11/17 06:59:47;;;;;;;14.73;9.97;;;;;;;;;;5049627;28;20221;-58
2021/11/17 07:02:12;;;;;;;14.77;10.40;;;;;;;;;;5053429;28;20223;-59
2021/11/17 07:04:38;;;;;;;12.10;9.93;;;;;;;;;;5047013;28;20904;-58
2021/11/17 07:07:06;;;;;;;14.40;9.90;;;;;;;;;;5044769;28;20619;-59
2021/11/17 07:09:31;;;;;;;16.07;10.60;;;;;;;;;;5046763;28;20231;-59
2021/11/17 07:11:57;;;;;;;12.63;9.80;;;;;;;;;;5039920;28;20454;-58
2021/11/17 07:14:22;;;;;;;13.07;10.87;;;;;;;;;;5045189;28;20311;-58
2021/11/17 07:16:50;;;;;;;14.10;10.23;;;;;;;;;;5046824;28;20225;-60
2021/11/17 07:19:16;;;;;;;11.93;10.10;;;;;;;;;;5051402;28;20467;-60
2021/11/17 07:21:42;;;;;;;13.43;10.00;;;;;;;;;;5048953;28;20474;-59
2021/11/17 07:24:08;;;;;;;11.57;9.70;;;;;;;;;;5045074;28;20692;-60
2021/11/17 07:26:33;;;;;;;12.70;10.17;;;;;;;;;;5048893;28;20539;-60
2021/11/17 07:28:59;;;;;;;44.53;26.90;;;;;;;;;;5051949;28;20568;-60
2021/11/17 07:31:24;;;;;;;16.40;10.47;;;;;;;;;;5047631;28;20481;-59
2021/11/17 07:33:50;;;;;;;33.83;24.13;;;;;;;;;;5044486;28;20372;-59
2021/11/17 07:36:16;;;;;;;16.30;11.87;;;;;;;;;;5048617;28;20243;-59
2021/11/17 07:38:42;;;;;;;12.63;10.53;;;;;;;;;;5051343;28;22705;-59
2021/11/17 07:41:08;;;;;;;13.23;10.10;;;;;;;;;;5047950;28;20473;-58
2021/11/17 07:43:33;;;;;;;14.77;12.10;;;;;;;;;;5045090;28;20391;-60
2021/11/17 07:45:59;;;;;;;13.23;11.70;;;;;;;;;;5047708;28;20459;-59
2021/11/17 07:48:26;;;;;;;13.13;9.80;;;;;;;;;;5051959;28;20244;-59
2021/11/17 07:50:53;;;;;;;13.03;9.67;;;;;;;;;;5046589;28;20227;-59
2021/11/17 07:53:21;;;;;;;13.90;10.90;;;;;;;;;;5044359;28;20524;-59
2021/11/17 07:55:50;;;;;;;15.30;12.57;;;;;;;;;;5047505;28;20477;-59
2021/11/17 07:58:16;;;;;;;12.47;10.47;;;;;;;;;;5050000;28;20472;-60
2021/11/17 08:00:47;;;;;;;15.07;10.60;;;;;;;;;;5048724;28;20467;-59
2021/11/17 08:03:13;;;;;;;17.73;11.23;;;;;;;;;;5044625;28;20467;-59
2021/11/17 08:05:40;;;;;;;18.70;12.90;;;;;;;;;;5045481;28;20471;-60
2021/11/17 08:08:06;;;;;;;15.87;11.47;;;;;;;;;;5051318;28;20585;-60
2021/11/17 08:10:33;;;;;;;16.43;12.53;;;;;;;;;;5025291;28;20534;-60
2021/11/17 08:12:59;;;;;;;12.73;11.37;;;;;;;;;;5050526;28;20228;-59
2021/11/17 08:15:24;;;;;;;13.87;10.73;;;;;;;;;;5050365;28;20478;-60
2021/11/17 08:17:49;;;;;;;12.97;9.30;;;;;;;;;;5043963;28;20221;-58
2021/11/17 08:20:18;;;;;;;12.53;9.87;;;;;;;;;;5046339;28;20241;-61
2021/11/17 08:22:46;;;;;;;15.30;11.07;;;;;;;;;;5051097;28;20216;-59
2021/11/17 08:25:13;;;;;;;13.00;10.80;;;;;;;;;;5049277;28;20428;-60
2021/11/17 08:27:39;;;;;;;12.63;10.60;;;;;;;;;;5044216;28;20470;-59
2021/11/17 08:30:08;;;;;;;15.63;10.23;;;;;;;;;;5045951;28;20440;-59
2021/11/17 08:32:33;;;;;;;16.40;10.50;;;;;;;;;;5049705;28;20287;-59
2021/11/17 08:34:59;;;;;;;14.00;9.73;;;;;;;;;;5049109;28;20526;-60
2021/11/17 08:37:24;;;;;;;12.87;9.87;;;;;;;;;;5044325;28;20355;-59
2021/11/17 08:39:53;;;;;;;13.40;11.10;;;;;;;;;;5045271;28;20222;-59
2021/11/17 08:42:18;;;;;;;15.63;10.57;;;;;;;;;;5052106;28;20212;-59
2021/11/17 08:44:43;;;;;;;12.53;9.90;;;;;;;;;;5052799;28;20464;-60
2021/11/17 08:47:12;;;;;;;13.27;10.40;;;;;;;;;;5046465;28;20657;-59
2021/11/17 08:49:37;;;;;;;11.90;9.50;;;;;;;;;;5050633;28;20228;-59
2021/11/17 08:52:05;;;;;;;11.93;10.63;;;;;;;;;;5054675;28;20547;-59
2021/11/17 08:54:30;;;;;;;14.47;10.70;;;;;;;;;;5049974;28;20231;-60
2021/11/17 08:56:58;;;;;;;13.90;10.17;;;;;;;;;;5047520;28;20521;-59
2021/11/17 08:59:24;;;;;;;12.83;9.73;;;;;;;;;;5050636;28;20227;-60
2021/11/17 09:01:49;;;;;;;15.70;11.00;;;;;;;;;;5053874;28;20459;-59
2021/11/17 09:04:14;;;;;;;12.87;10.60;;;;;;;;;;5050004;28;20875;-59
2021/11/17 09:06:40;;;;;;;18.37;11.73;;;;;;;;;;5047474;28;20220;-61
2021/11/17 09:09:06;;;;;;;15.20;10.00;;;;;;;;;;5051458;28;20235;-59
2021/11/17 09:11:36;;;;;;;11.90;9.63;;;;;;;;;;5035391;28;20683;-59
2021/11/17 09:14:02;;;;;;;14.33;10.10;;;;;;;;;;5047251;28;20476;-59
2021/11/17 09:16:32;;;;;;;12.37;9.23;;;;;;;;;;5052918;28;20466;-60
2021/11/17 09:19:01;;;;;;;14.17;9.87;;;;;;;;;;5054151;28;20530;-59
2021/11/17 09:21:27;;;;;;;10.53;8.83;;;;;;;;;;5049711;28;20445;-60
2021/11/17 09:23:52;;;;;;;13.77;10.20;;;;;;;;;;5046784;28;20546;-59
2021/11/17 09:26:22;;;;;;;13.17;8.97;;;;;;;;;;5052034;28;20226;-60
2021/11/17 09:28:48;;;;;;;12.43;9.23;;;;;;;;;;5051967;28;20728;-59
2021/11/17 09:31:14;;;;;;;15.10;10.63;;;;;;;;;;5049423;28;20474;-60
2021/11/17 09:33:39;;;;;;;14.00;11.00;;;;;;;;;;5047754;28;20467;-60
2021/11/17 09:36:06;;;;;;;14.47;10.97;;;;;;;;;;5052219;28;20213;-59
2021/11/17 09:38:31;;;;;;;14.30;10.43;;;;;;;;;;5054479;28;20216;-59
2021/11/17 09:40:59;;;;;;;12.70;9.60;;;;;;;;;;5048497;28;20480;-60
2021/11/17 09:43:32;;;;;;;11.90;9.87;;;;;;;;;;5047076;28;20217;-59
2021/11/17 09:45:58;;;;;;;14.30;9.93;;;;;;;;;;5050607;28;20499;-59
2021/11/17 09:48:31;;;;;;;17.40;11.43;;;;;;;;;;5052993;28;20464;-59
2021/11/17 09:51:08;;;;;;;16.23;10.13;;;;;;;;;;5048603;28;20463;-59
2021/11/17 09:53:40;;;;;;;18.57;10.60;;;;;;;;;;5045703;28;20455;-58
2021/11/17 09:56:09;;;;;;;16.50;10.50;;;;;;;;;;5049072;28;20804;-60
2021/11/17 09:58:39;;;;;;;11.70;9.13;;;;;;;;;;5052917;28;20867;-59
2021/11/17 10:01:13;;;;;;;12.63;9.90;;;;;;;;;;5052101;28;20487;-59
2021/11/17 10:04:01;;;;;;;14.33;10.80;;;;;;;;;;5046255;28;20457;-60
2021/11/17 10:06:51;;;;;;;10.80;8.90;;;;;;;;;;5044745;28;20464;-59
2021/11/17 10:10:01;;;;;;;12.93;10.00;;;;;;;;;;5044074;28;20461;-59
2021/11/17 10:13:01;;;;;;;15.50;10.97;;;;;;;;;;5048452;28;20422;-59
2021/11/17 10:15:31;;;;;;;12.73;10.23;;;;;;;;;;5051557;28;20459;-60
2021/11/17 10:18:05;;;;;;;12.10;9.23;;;;;;;;;;5042367;28;20542;-59
2021/11/17 10:20:49;;;;;;;12.90;8.70;;;;;;;;;;5045292;28;20520;-59
2021/11/17 10:23:26;;;;;;;10.17;8.80;;;;;;;;;;5049377;28;20459;-60
2021/11/17 10:25:57;;;;;;;13.13;10.07;;;;;;;;;;5052171;28;20483;-59
2021/11/17 10:28:39;;;;;;;11.07;8.60;;;;;;;;;;5050298;28;20466;-59
2021/11/17 10:31:23;;;;;;;13.93;9.97;;;;;;;;;;5034356;28;20550;-60
2021/11/17 10:34:15;;;;;;;10.60;8.70;;;;;;;;;;5044687;28;20446;-60
2021/11/17 10:36:40;;;;;;;14.17;10.13;;;;;;;;;;5045018;28;20445;-60
2021/11/17 10:39:14;;;;;;;12.20;8.87;;;;;;;;;;5051280;28;20511;-60
2021/11/17 10:42:19;;;;;;;12.20;9.57;;;;;;;;;;5052740;28;20548;-60
2021/11/17 10:44:55;;;;;;;12.60;9.53;;;;;;;;;;5007947;28;20467;-59
2021/11/17 10:47:26;;;;;;;11.83;9.30;;;;;;;;;;5032215;28;20452;-59
2021/11/17 10:49:57;;;;;;;12.27;9.97;;;;;;;;;;5043845;28;20426;-60
2021/11/17 10:52:29;;;;;;;13.10;10.90;;;;;;;;;;5050196;28;20428;-60
2021/11/17 10:54:56;;;;;;;16.03;10.33;;;;;;;;;;5052017;28;20478;-60
2021/11/17 10:57:27;;;;;;;12.83;9.80;;;;;;;;;;5048015;28;20467;-59
2021/11/17 10:59:54;;;;;;;15.67;9.87;;;;;;;;;;5045137;28;20456;-59
2021/11/17 11:02:21;;;;;;;12.07;8.90;;;;;;;;;;5048098;28;20587;-59
2021/11/17 11:04:52;;;;;;;13.00;9.80;;;;;;;;;;5049561;28;20454;-60
2021/11/17 11:07:47;;;;;;;10.87;9.23;;;;;;;;;;5047904;28;20963;-59
2021/11/17 11:10:23;;;;;;;13.30;10.43;;;;;;;;;;5026893;28;20475;-60
2021/11/17 11:12:50;;;;;;;13.73;9.50;;;;;;;;;;5052029;28;20527;-59
2021/11/17 11:15:29;;;;;;;10.73;8.90;;;;;;;;;;5049353;28;20848;-60
2021/11/17 11:18:03;;;;;;;12.13;9.07;;;;;;;;;;5043785;28;20445;-59
2021/11/17 11:20:32;;;;;;;12.53;9.97;;;;;;;;;;5044452;28;20792;-59
2021/11/17 11:23:11;;;;;;;14.63;10.30;;;;;;;;;;5052090;28;20445;-60
2021/11/17 11:26:00;;;;;;;17.40;10.10;;;;;;;;;;5053143;28;20817;-60
2021/11/17 11:29:01;;;;;;;12.93;9.00;;;;;;;;;;5034672;28;20437;-59
2021/11/17 11:31:40;;;;;;;11.63;8.83;;;;;;;;;;5022924;28;20466;-60
2021/11/17 11:34:05;;;;;;;11.80;8.90;;;;;;;;;;5044758;28;20476;-60
2021/11/17 11:36:48;;;;;;;12.90;10.90;;;;;;;;;;5050095;28;20826;-59
2021/11/17 11:39:14;;;;;;;10.10;8.53;;;;;;;;;;5050141;28;20556;-60
2021/11/17 11:41:43;;;;;;;12.27;9.70;;;;;;;;;;5045704;28;20817;-60
2021/11/17 11:44:23;;;;;;;14.63;10.40;;;;;;;;;;5044759;28;20452;-60
2021/11/17 11:46:57;;;;;;;16.10;10.97;;;;;;;;;;5048228;28;20459;-60
2021/11/17 11:49:49;;;;;;;14.40;8.93;;;;;;;;;;5050690;28;20419;-60
2021/11/17 11:52:24;;;;;;;10.60;9.00;;;;;;;;;;5052219;28;20660;-59
2021/11/17 11:54:55;;;;;;;14.47;10.60;;;;;;;;;;5046642;28;20553;-60
2021/11/17 11:57:44;;;;;;;13.03;9.80;;;;;;;;;;5044086;28;20474;-58
2021/11/17 12:00:20;;;;;;;11.57;8.60;;;;;;;;;;5046204;28;20470;-59
2021/11/17 12:02:50;;;;;;;12.90;9.70;;;;;;;;;;5051992;28;20505;-59
2021/11/17 12:05:36;;;;;;;12.60;9.67;;;;;;;;;;5049537;28;20526;-60
2021/11/17 12:08:26;;;;;;;13.47;8.90;;;;;;;;;;5031621;28;20489;-61
2021/11/17 12:11:08;;;;;;;13.67;10.27;;;;;;;;;;5035501;28;20471;-60
2021/11/17 12:13:37;;;;;;;13.00;9.03;;;;;;;;;;5045886;28;20756;-60
2021/11/17 12:16:09;;;;;;;10.70;8.70;;;;;;;;;;5048155;28;20538;-60
2021/11/17 12:18:51;;;;;;;20.33;9.80;;;;;;;;;;5057754;28;20447;-59
2021/11/17 12:21:24;;;;;;;12.80;9.40;;;;;;;;;;5055509;28;20481;-60
2021/11/17 12:24:20;;;;;;;13.00;10.20;;;;;;;;;;5052205;28;20492;-59
2021/11/17 12:26:58;;;;;;;15.10;10.67;;;;;;;;;;5051535;28;20920;-60
2021/11/17 12:29:26;;;;;;;14.23;11.00;;;;;;;;;;5052973;28;20455;-59
2021/11/17 12:32:09;;;;;;;13.17;10.07;;;;;;;;;;5058028;28;20534;-60
2021/11/17 12:34:43;;;;;;;15.10;10.70;;;;;;;;;;5058145;28;20456;-60
2021/11/17 12:37:20;;;;;;;12.17;9.30;;;;;;;;;;5039170;28;20461;-60
2021/11/17 12:39:59;;;;;;;14.10;9.87;;;;;;;;;;5050950;28;20436;-59
2021/11/17 12:42:45;;;;;;;10.70;8.67;;;;;;;;;;5054702;28;20448;-60
2021/11/17 12:45:29;;;;;;;11.57;7.70;;;;;;;;;;5032581;28;21558;-60
2021/11/17 12:48:00;;;;;;;12.93;8.57;;;;;;;;;;5050034;28;20476;-59
2021/11/17 12:50:30;;;;;;;13.03;9.50;;;;;;;;;;5055463;28;20464;-60
2021/11/17 12:53:07;;;;;;;10.07;7.93;;;;;;;;;;5057040;28;20522;-59
2021/11/17 12:55:41;;;;;;;9.47;8.00;;;;;;;;;;5052922;28;20475;-60
2021/11/17 12:58:12;;;;;;;8.53;7.60;;;;;;;;;;5049758;28;20430;-60
2021/11/17 13:00:54;;;;;;;9.23;7.30;;;;;;;;;;5052606;28;20449;-60
2021/11/17 13:03:36;;;;;;;11.30;7.73;;;;;;;;;;5057160;28;20496;-61
2021/11/17 13:06:08;;;;;;;10.47;7.10;;;;;;;;;;5057374;28;20438;-60
2021/11/17 13:08:35;;;;;;;10.50;6.83;;;;;;;;;;5052393;28;20459;-59
2021/11/17 13:11:01;;;;;;;11.63;6.50;;;;;;;;;;5055064;28;20484;-59
2021/11/17 13:13:50;;;;;;;8.77;6.70;;;;;;;;;;5057413;28;20466;-60
2021/11/17 13:16:33;;;;;;;10.60;7.00;;;;;;;;;;5051595;28;20296;-60
2021/11/17 13:19:05;;;;;;;10.50;6.43;;;;;;;;;;5056885;28;20453;-60
2021/11/17 13:21:39;;;;;;;8.43;5.87;;;;;;;;;;5056828;28;20860;-59
2021/11/17 13:24:24;;;;;;;11.57;5.87;;;;;;;;;;5038631;28;20429;-61
2021/11/17 13:26:53;;;;;;;12.90;8.20;;;;;;;;;;5048544;28;20466;-62
2021/11/17 13:29:23;;;;;;;9.40;7.67;;;;;;;;;;5047943;28;20443;-61
2021/11/17 13:32:08;;;;;;;8.83;7.10;;;;;;;;;;5051716;28;20440;-61
2021/11/17 13:34:45;;;;;;;9.07;6.90;;;;;;;;;;5051246;28;20521;-62
2021/11/17 13:37:34;;;;;;;9.13;7.40;;;;;;;;;;5031750;28;20462;-62
2021/11/17 13:40:05;;;;;;;10.30;6.97;;;;;;;;;;5045238;28;20456;-61
2021/11/17 13:42:31;;;;;;;9.50;6.77;;;;;;;;;;5049010;28;20861;-62
2021/11/17 13:44:58;;;;;;;11.80;6.97;;;;;;;;;;5037276;28;20488;-62
2021/11/17 13:47:24;;;;;;;8.87;7.00;;;;;;;;;;5038081;28;20217;-62
2021/11/17 13:49:53;;;;;;;10.53;6.80;;;;;;;;;;5037500;28;20529;-61
2021/11/17 13:52:23;;;;;;;10.80;7.07;;;;;;;;;;5036654;28;20537;-62
2021/11/17 13:54:49;;;;;;;8.83;6.57;;;;;;;;;;5035588;28;20800;-61
2021/11/17 13:57:15;;;;;;;9.27;7.30;;;;;;;;;;5036463;28;20468;-61
2021/11/17 13:59:40;;;;;;;12.93;8.07;;;;;;;;;;5035602;28;20408;-61
2021/11/17 14:02:06;;;;;;;10.77;8.30;;;;;;;;;;5035176;28;20210;-63
2021/11/17 14:04:31;;;;;;;10.63;8.77;;;;;;;;;;5035749;28;20210;-61
2021/11/17 14:06:58;;;;;;;11.30;8.30;;;;;;;;;;5036213;28;20214;-62
2021/11/17 14:09:24;;;;;;;8.83;7.93;;;;;;;;;;5037795;28;20226;-62
2021/11/17 14:11:50;;;;;;;10.37;9.07;;;;;;;;;;5037735;28;20761;-61
2021/11/17 14:14:16;;;;;;;10.37;8.30;;;;;;;;;;5036557;28;20468;-62
2021/11/17 14:16:41;;;;;;;10.93;8.60;;;;;;;;;;5037988;28;20213;-62
2021/11/17 14:19:07;;;;;;;9.60;7.13;;;;;;;;;;5037217;28;20427;-62
2021/11/17 14:21:33;;;;;;;11.00;7.70;;;;;;;;;;5037428;28;20223;-63
2021/11/17 14:23:59;;;;;;;12.80;9.07;;;;;;;;;;5036855;28;20214;-62
2021/11/17 14:26:24;;;;;;;9.43;7.57;;;;;;;;;;5037056;28;20441;-63
2021/11/17 14:28:53;;;;;;;9.93;7.93;;;;;;;;;;5036352;28;20214;-62
2021/11/17 14:31:35;;;;;;;12.03;7.17;;;;;;;;;;5036404;28;20242;-62
2021/11/17 14:34:01;;;;;;;8.87;7.97;;;;;;;;;;5036054;28;20476;-62
2021/11/17 14:36:31;;;;;;;9.87;7.20;;;;;;;;;;5036176;28;20955;-62
2021/11/17 14:39:00;;;;;;;10.97;7.70;;;;;;;;;;5017878;28;20429;-62
2021/11/17 14:41:25;;;;;;;9.73;7.90;;;;;;;;;;5035424;28;20432;-62
2021/11/17 14:43:51;;;;;;;8.90;7.43;;;;;;;;;;5035948;28;20483;-62
2021/11/17 14:46:17;;;;;;;9.30;8.33;;;;;;;;;;5035887;28;20301;-62
2021/11/17 14:48:43;;;;;;;10.07;7.23;;;;;;;;;;5036237;28;20948;-62
2021/11/17 14:51:09;;;;;;;9.33;7.13;;;;;;;;;;5035683;28;20231;-62
2021/11/17 14:53:34;;;;;;;15.60;7.43;;;;;;;;;;5036183;28;20534;-62
2021/11/17 14:55:59;;;;;;;8.93;7.17;;;;;;;;;;5036343;28;20244;-62
2021/11/17 14:58:24;;;;;;;10.03;8.80;;;;;;;;;;5037411;28;20229;-62
2021/11/17 15:00:53;;;;;;;9.23;8.00;;;;;;;;;;5037800;28;20235;-63
2021/11/17 15:03:19;;;;;;;12.90;8.90;;;;;;;;;;5037498;28;20221;-62
2021/11/17 15:05:44;;;;;;;9.00;7.20;;;;;;;;;;5037055;28;20465;-63
2021/11/17 15:08:09;;;;;;;10.27;7.87;;;;;;;;;;5036930;28;20440;-64
2021/11/17 15:10:35;;;;;;;11.23;8.90;;;;;;;;;;5037055;28;20229;-62
2021/11/17 15:13:00;;;;;;;11.50;9.37;;;;;;;;;;5037256;28;20664;-60
2021/11/17 15:15:30;;;;;;;13.30;8.90;;;;;;;;;;5037104;28;20226;-62
2021/11/17 15:17:56;;;;;;;11.60;9.87;;;;;;;;;;5036522;28;20298;-59
2021/11/17 15:20:22;;;;;;;12.53;9.57;;;;;;;;;;5035835;28;20839;-61
2021/11/17 15:22:47;;;;;;;12.10;9.20;;;;;;;;;;5035805;28;20493;-62
2021/11/17 15:25:20;;;;;;;9.37;8.37;;;;;;;;;;5035304;28;20464;-61
2021/11/17 15:27:52;;;;;;;10.07;8.00;;;;;;;;;;5034287;28;20213;-61
2021/11/17 15:30:30;;;;;;;7.83;6.53;;;;;;;;;;5035096;28;20453;-62
2021/11/17 15:32:56;;;;;;;8.20;7.40;;;;;;;;;;5035420;28;20535;-62
2021/11/17 15:35:23;;;;;;;9.97;7.77;;;;;;;;;;5035161;28;20449;-61
2021/11/17 15:37:50;;;;;;;8.60;6.57;;;;;;;;;;5035151;28;20442;-61
2021/11/17 15:40:18;;;;;;;10.30;6.50;;;;;;;;;;5035278;28;20477;-62
2021/11/17 15:42:45;;;;;;;9.03;6.90;;;;;;;;;;5035397;28;20479;-62
2021/11/17 15:45:10;;;;;;;10.27;7.53;;;;;;;;;;5034982;28;20442;-61
2021/11/17 15:47:35;;;;;;;9.83;6.73;;;;;;;;;;5035539;28;20431;-60
2021/11/17 15:50:03;;;;;;;8.40;7.30;;;;;;;;;;5035107;28;20237;-61
2021/11/17 15:52:28;;;;;;;9.90;7.00;;;;;;;;;;5035345;28;20210;-61
2021/11/17 15:54:53;;;;;;;9.47;7.93;;;;;;;;;;5035374;28;20475;-61
2021/11/17 15:57:19;;;;;;;9.53;8.07;;;;;;;;;;5035418;28;20221;-60
2021/11/17 15:59:44;;;;;;;7.30;6.40;;;;;;;;;;5035589;28;20225;-61
2021/11/17 16:02:10;;;;;;;11.83;7.47;;;;;;;;;;5035408;28;20439;-61
2021/11/17 16:04:35;;;;;;;7.40;6.23;;;;;;;;;;5035984;28;20304;-62
2021/11/17 16:07:05;;;;;;;10.47;7.50;;;;;;;;;;5034533;28;20237;-61
2021/11/17 16:09:34;;;;;;;6.60;6.00;;;;;;;;;;5034801;28;20291;-61
2021/11/17 16:12:00;;;;;;;7.87;6.40;;;;;;;;;;5034763;28;20440;-60
2021/11/17 16:14:26;;;;;;;6.90;6.17;;;;;;;;;;5034991;28;20452;-61
2021/11/17 16:16:52;;;;;;;7.60;6.73;;;;;;;;;;5035461;28;20771;-61
2021/11/17 16:19:18;;;;;;;8.00;6.80;;;;;;;;;;5035000;28;20611;-61
2021/11/17 16:21:44;;;;;;;9.67;7.63;;;;;;;;;;5035709;28;20435;-61
2021/11/17 16:26:53;;;;;;;8.20;6.80;;;;;;;;;;5035454;28;20228;-61
2021/11/17 16:29:19;;;;;;;9.00;5.77;;;;;;;;;;5034195;28;20436;-61
2021/11/17 16:31:44;;;;;;;9.80;6.77;;;;;;;;;;5036027;28;20299;-60
2021/11/17 16:34:10;;;;;;;7.10;6.33;;;;;;;;;;5036856;28;20223;-59
2021/11/17 16:36:40;;;;;;;8.17;6.03;;;;;;;;;;5037296;28;20259;-60
2021/11/17 16:39:07;;;;;;;8.33;5.80;;;;;;;;;;5037169;28;20923;-61
2021/11/17 16:41:32;;;;;;;9.03;7.00;;;;;;;;;;5037849;28;20456;-60
2021/11/17 16:43:58;;;;;;;12.23;7.77;;;;;;;;;;5036386;28;20442;-59
2021/11/17 16:46:24;;;;;;;8.93;6.40;;;;;;;;;;5037683;28;20229;-60
2021/11/17 16:48:50;;;;;;;8.73;7.00;;;;;;;;;;5038374;28;20229;-60
2021/11/17 16:51:17;;;;;;;7.63;6.73;;;;;;;;;;5037078;28;20435;-60
2021/11/17 16:53:42;;;;;;;7.60;5.57;;;;;;;;;;5037326;28;20669;-60
2021/11/17 16:56:08;;;;;;;6.97;5.83;;;;;;;;;;5036875;28;20460;-60
2021/11/17 16:58:33;;;;;;;7.63;6.60;;;;;;;;;;5037845;28;20219;-60
2021/11/17 17:01:00;;;;;;;8.93;6.37;;;;;;;;;;5037800;28;20305;-59
2021/11/17 17:03:29;;;;;;;8.90;7.50;;;;;;;;;;5038729;28;20215;-60
2021/11/17 17:05:58;;;;;;;8.03;6.10;;;;;;;;;;5042087;28;20437;-59
2021/11/17 17:08:23;;;;;;;9.67;7.60;;;;;;;;;;5040452;28;20455;-60
2021/11/17 17:10:49;;;;;;;9.20;6.67;;;;;;;;;;5041460;28;20951;-60
2021/11/17 17:13:14;;;;;;;10.73;7.10;;;;;;;;;;5041005;28;20606;-59
2021/11/17 17:15:43;;;;;;;10.07;6.60;;;;;;;;;;5041383;28;20233;-60
2021/11/17 17:18:15;;;;;;;11.93;6.90;;;;;;;;;;5041027;28;20226;-60
2021/11/17 17:20:43;;;;;;;9.03;7.67;;;;;;;;;;5041684;28;20472;-59
2021/11/17 17:23:12;;;;;;;12.17;8.60;;;;;;;;;;5041432;28;20776;-58
2021/11/17 17:25:42;;;;;;;9.93;7.17;;;;;;;;;;5041828;28;20470;-60
2021/11/17 17:28:13;;;;;;;12.57;8.03;;;;;;;;;;5040646;28;20936;-60
2021/11/17 17:30:40;;;;;;;10.30;7.43;;;;;;;;;;5040627;28;20522;-60
2021/11/17 17:33:06;;;;;;;10.03;7.27;;;;;;;;;;5040017;28;20457;-59
2021/11/17 17:35:32;;;;;;;11.73;8.27;;;;;;;;;;5040930;28;20454;-58
2021/11/17 17:37:57;;;;;;;10.60;7.67;;;;;;;;;;5041114;28;20423;-59